Latest Weather Observations for Grafton Airport

IDN60801

Issued at 10:35 am EST Thursday 24 April 2014 (issued every 30 minutes, with the page automatically refreshed every 10 minutes)

About weather observations | Map of weather stations | Latest weather observations for NSW | Other Formats
Station Details ID: 058161 Name: GRAFTON AIRPORT AWS Lat: -29.76 Lon: 153.03 Height: 25.09 m
Data from the previous 72 hours. | See also: Recent months for locations in New South Wales
Date/Time
EST
Temp
°C
App
Temp
°C
Dew
Point
Rel
Hum
%
Delta-T
°C
Wind Press
QNH
hPa
Press
MSL
hPa
Rain
since 9 am
mm
Dir
 
Spd
km/h
Gust
km/h
Spd
kts
Gust
kts
24/10:30am 25.3 25.4 14.4 50 6.5 N 7 13 4 7 1016.5 - 0.0
24/10:00am 24.1 24.6 15.6 59 5.1 N 7 11 4 6 1016.8 - 0.0
24/09:30am 22.2 22.7 15.5 66 4.0 N 7 11 4 6 1017.0 - 0.0
24/09:00am 20.6 21.2 15.8 74 2.9 N 7 9 4 5 1017.2 1017.1 0.0
24/08:30am 19.1 20.7 16.0 82 1.8 N 2 7 1 4 1017.1 - 0.0
24/08:00am 16.7 18.6 15.7 94 0.6 CALM 0 0 0 0 1017.1 - 0.0
24/07:49am 15.8 17.5 15.3 97 0.3 CALM 0 0 0 0 1017.0 - 0.0
24/07:30am 14.4 15.3 14.1 98 0.2 N 2 6 1 3 1016.9 - 0.0
24/07:12am 13.9 15.1 13.7 99 0.1 CALM 0 7 0 4 1016.7 - 0.0
24/07:00am 13.8 14.9 13.6 99 0.1 CALM 0 0 0 0 1016.6 - 0.0
24/06:54am 13.6 14.7 13.4 99 0.1 CALM 0 0 0 0 1016.6 - 0.0
24/06:30am 12.8 13.5 12.3 97 0.3 CALM 0 0 0 0 1016.6 - 0.0
24/06:22am 12.9 13.7 12.4 97 0.3 CALM 0 0 0 0 1016.6 - 0.0
24/06:00am 12.6 13.2 11.8 95 0.4 CALM 0 0 0 0 1016.5 1016.4 0.0
24/05:36am 13.6 14.5 13.0 96 0.3 CALM 0 0 0 0 1016.1 - 0.0
24/05:35am 13.7 14.7 13.2 97 0.3 SSW 0 0 0 0 1016.1 - 0.0
24/05:30am 13.9 15.0 13.4 97 0.3 CALM 0 0 0 0 1016.0 - 0.0
24/05:00am 14.5 15.8 14.2 98 0.2 CALM 0 0 0 0 1015.9 - 0.0
24/04:30am 14.2 15.3 13.6 96 0.3 CALM 0 0 0 0 1015.5 - 0.0
24/04:00am 15.0 16.4 14.5 97 0.3 CALM 0 0 0 0 1015.3 - 0.0
24/03:30am 14.8 16.1 14.0 95 0.5 CALM 0 0 0 0 1015.3 - 0.0
24/03:00am 15.6 17.1 14.6 94 0.6 CALM 0 0 0 0 1015.4 1015.3 0.0
24/02:30am 15.8 17.2 14.5 92 0.7 CALM 0 0 0 0 1015.7 - 0.0
24/02:00am 16.5 18.1 15.0 91 0.9 CALM 0 0 0 0 1015.9 - 0.0
24/01:30am 17.0 17.7 15.5 91 0.9 SSW 6 7 3 4 1016.1 - 0.0
24/01:00am 17.1 18.9 15.4 90 1.0 CALM 0 0 0 0 1016.3 - 0.0
24/12:30am 17.4 19.1 15.2 87 1.3 CALM 0 0 0 0 1016.5 - 0.0
24/12:00am 18.0 20.1 16.2 89 1.1 E 0 0 0 0 1016.7 1016.6 0.0
 
Date/Time
EST
Temp
°C
App
Temp
°C
Dew
Point
Rel
Hum
%
Delta-T
°C
Wind Press
QNH
hPa
Press
MSL
hPa
Rain
since 9 am
mm
Dir
 
Spd
km/h
Gust
km/h
Spd
kts
Gust
kts
23/11:30pm 17.9 19.9 15.9 88 1.2 CALM 0 0 0 0 1017.0 - 0.0
23/11:00pm 17.8 18.5 15.6 87 1.3 SSW 6 9 3 5 1017.0 - 0.0
23/10:30pm 18.0 19.5 15.8 87 1.3 E 2 7 1 4 1017.0 - 0.0
23/10:00pm 17.7 18.2 15.5 87 1.3 S 7 9 4 5 1017.2 - 0.0
23/09:30pm 17.7 19.4 15.1 85 1.5 CALM 0 7 0 4 1017.2 - 0.0
23/09:00pm 17.7 18.1 14.8 83 1.7 W 6 9 3 5 1017.2 1017.1 0.0
23/08:30pm 19.5 20.1 15.2 76 2.5 NE 6 7 3 4 1017.0 - 0.0
23/08:00pm 19.0 20.7 15.1 78 2.3 CALM 0 0 0 0 1017.1 - 0.0
23/07:30pm 20.3 22.0 15.3 73 3.0 CALM 0 0 0 0 1016.8 - 0.0
23/07:00pm 21.1 21.7 15.2 69 3.5 ENE 6 7 3 4 1016.5 - 0.0
23/06:30pm 21.4 21.8 15.3 68 3.6 NE 7 9 4 5 1016.2 - 0.0
23/06:00pm 21.6 21.6 15.2 67 3.8 NE 9 13 5 7 1016.0 1015.9 0.0
23/05:30pm 21.9 21.4 15.0 65 4.1 NNE 11 17 6 9 1015.6 - 0.0
23/05:00pm 24.2 23.4 15.1 56 5.5 NE 13 17 7 9 1015.3 - 0.0
23/04:30pm 26.3 24.5 14.4 48 7.1 NE 17 22 9 12 1015.0 - 0.0
23/04:00pm 27.5 25.0 12.3 39 8.8 NNE 17 20 9 11 1014.9 - 0.0
23/03:30pm 28.1 26.4 13.6 41 8.6 NNE 15 20 8 11 1014.8 - 0.0
23/03:00pm 28.4 27.4 14.6 43 8.3 NNE 13 19 7 10 1014.9 1014.8 0.0
23/02:30pm 28.2 26.3 12.9 38 9.0 NE 15 20 8 11 1014.9 - 0.0
23/02:00pm 28.0 26.6 13.5 41 8.6 NNE 13 20 7 11 1015.2 - 0.0
23/01:30pm 28.2 27.5 13.3 40 8.8 N 9 13 5 7 1015.3 - 0.0
23/01:00pm 27.6 26.6 13.5 41 8.3 NNE 11 15 6 8 1015.7 - 0.0
23/12:30pm 27.6 26.9 14.3 44 8.0 NNE 11 15 6 8 1016.2 - 0.0
23/12:00pm 27.1 27.3 14.8 47 7.4 NNE 7 13 4 7 1016.8 1016.7 0.0
23/11:30am 26.5 26.2 14.3 47 7.3 NW 9 13 5 7 1017.5 - 0.0
23/11:00am 25.2 25.4 15.8 56 5.7 NNE 9 13 5 7 1018.1 - 0.0
23/10:30am 24.0 24.4 16.3 62 4.7 N 9 13 5 7 1018.7 - 0.0
23/10:00am 23.0 23.9 17.5 71 3.4 N 9 13 5 7 1019.1 - 0.0
23/09:30am 20.8 21.5 16.2 75 2.8 N 7 11 4 6 1019.4 - 0.0
23/09:00am 19.4 20.5 16.6 84 1.7 NNE 6 7 3 4 1019.7 1019.6 0.0
23/08:30am 17.9 20.2 16.8 93 0.7 CALM 0 0 0 0 1019.8 - 0.0
23/08:29am 17.7 20.0 16.7 94 0.6 CALM 0 0 0 0 1019.8 - 0.0
23/08:00am 16.0 17.9 15.8 99 0.1 CALM 0 0 0 0 1019.7 - 0.0
23/07:30am 15.3 17.0 15.1 99 0.1 CALM 0 0 0 0 1019.5 - 0.0
23/07:00am 13.6 14.7 13.4 99 0.1 CALM 0 0 0 0 1019.4 - 0.0
23/06:30am 12.6 13.3 12.3 98 0.2 CALM 0 0 0 0 1019.1 - 0.0
23/06:01am 12.4 12.6 11.9 97 0.3 S 2 7 1 4 1018.8 - 0.0
23/06:00am 12.4 12.6 11.9 97 0.3 S 2 7 1 4 1018.8 1018.7 0.0
23/05:44am 12.6 13.3 12.1 97 0.3 CALM 0 0 0 0 1018.4 - 0.0
23/05:30am 13.4 14.4 13.2 99 0.1 CALM 0 0 0 0 1018.4 - 0.0
23/05:00am 12.8 13.5 12.3 97 0.3 CALM 0 0 0 0 1018.2 - 0.0
23/04:54am 13.2 14.1 12.9 98 0.2 CALM 0 0 0 0 1018.1 - 0.0
23/04:30am 13.0 13.8 12.4 96 0.3 CALM 0 0 0 0 1018.0 - 0.0
23/04:26am 13.3 14.2 12.8 97 0.3 CALM 0 0 0 0 1017.9 - 0.0
23/04:00am 14.1 15.3 13.8 98 0.2 CALM 0 0 0 0 1017.7 - 0.0
23/03:30am 13.8 14.8 13.3 97 0.3 CALM 0 0 0 0 1017.7 - 0.0
23/03:10am 14.1 15.2 13.6 97 0.3 CALM 0 0 0 0 1017.7 - 0.0
23/03:00am 14.3 15.5 13.8 97 0.3 CALM 0 0 0 0 1017.5 1017.4 0.0
23/02:42am 14.2 15.3 13.4 95 0.4 CALM 0 0 0 0 1017.8 - 0.0
23/02:41am 14.2 15.3 13.4 95 0.4 CALM 0 0 0 0 1017.8 - 0.0
23/02:30am 14.5 15.7 13.9 96 0.3 CALM 0 0 0 0 1017.8 - 0.0
23/02:12am 14.5 15.7 13.7 95 0.4 CALM 0 0 0 0 1017.8 - 0.0
23/02:00am 15.1 16.6 14.6 97 0.3 CALM 0 0 0 0 1017.8 - 0.0
23/01:30am 15.0 16.4 14.4 96 0.3 CALM 0 0 0 0 1018.1 - 0.0
23/01:00am 15.5 15.4 15.0 97 0.3 S 9 9 5 5 1018.3 - 0.0
23/12:44am 15.7 16.2 15.1 96 0.3 S 6 7 3 4 1018.4 - 0.0
23/12:30am 15.7 16.3 15.2 97 0.3 SSW 6 7 3 4 1018.4 - 0.0
23/12:25am 15.7 16.1 15.2 97 0.3 SSW 7 9 4 5 1018.4 - 0.0
23/12:00am 16.1 17.8 15.3 95 0.5 CALM 0 0 0 0 1018.3 1018.2 0.0
 
Date/Time
EST
Temp
°C
App
Temp
°C
Dew
Point
Rel
Hum
%
Delta-T
°C
Wind Press
QNH
hPa
Press
MSL
hPa
Rain
since 9 am
mm
Dir
 
Spd
km/h
Gust
km/h
Spd
kts
Gust
kts
22/11:30pm 16.1 17.7 14.8 92 0.7 CALM 0 2 0 1 1018.4 - 0.0
22/11:00pm 16.7 18.4 15.1 90 0.9 CALM 0 0 0 0 1018.4 - 0.0
22/10:30pm 17.1 18.8 15.1 88 1.2 CALM 0 6 0 3 1018.8 - 0.0
22/10:00pm 17.0 17.8 14.8 87 1.3 SE 4 6 2 3 1018.9 - 0.0
22/09:30pm 18.0 19.9 15.8 87 1.3 CALM 0 0 0 0 1018.8 - 0.0
22/09:00pm 18.2 20.1 15.8 86 1.4 CALM 0 0 0 0 1018.9 1018.8 0.0
22/08:30pm 18.6 20.4 15.5 82 1.8 CALM 0 0 0 0 1018.8 - 0.0
22/08:00pm 19.4 19.9 15.5 78 2.3 NNE 7 11 4 6 1018.6 - 0.0
22/07:30pm 20.1 20.4 16.1 78 2.4 NE 9 11 5 6 1018.5 - 0.0
22/07:00pm 20.4 21.1 16.2 77 2.5 NE 7 9 4 5 1018.3 - 0.0
22/06:30pm 21.0 21.4 16.2 74 2.9 NE 9 11 5 6 1017.9 - 0.0
22/06:00pm 21.7 22.1 16.2 71 3.3 NE 9 13 5 7 1017.7 1017.6 0.0
22/05:30pm 22.5 22.4 16.1 67 3.9 NE 11 15 6 8 1017.4 - 0.0
22/05:00pm 23.8 22.8 15.6 60 4.9 NE 15 20 8 11 1017.2 - 0.0
22/04:30pm 25.2 24.5 16.3 57 5.5 NE 15 20 8 11 1017.1 - 0.0
22/04:00pm 25.7 24.0 15.7 54 6.1 NE 19 26 10 14 1017.0 - 0.0
22/03:30pm 27.4 25.3 14.8 46 7.6 NNE 19 26 10 14 1017.1 - 0.0
22/03:00pm 27.9 27.0 15.9 48 7.4 N 15 20 8 11 1017.2 1017.1 0.0
22/02:30pm 26.7 25.2 14.1 46 7.5 NNE 15 22 8 12 1017.4 - 0.0
22/02:00pm 27.1 26.2 14.8 47 7.4 N 13 24 7 13 1017.6 - 0.0
22/01:30pm 27.1 26.1 15.5 49 7.1 N 15 24 8 13 1017.7 - 0.0
22/01:00pm 26.9 25.7 15.0 48 7.2 N 15 24 8 13 1018.2 - 0.0
22/12:30pm 26.1 26.5 17.2 58 5.6 N 11 19 6 10 1018.9 - 0.0
22/12:00pm 25.2 24.8 16.1 57 5.6 N 13 19 7 10 1019.5 1019.4 0.0
22/11:30am 24.5 23.9 15.7 58 5.3 NNE 13 20 7 11 1019.9 - 0.0
22/11:00am 23.8 23.7 15.0 57 5.3 N 9 17 5 9 1020.5 - 0.0
22/10:30am 23.6 24.4 15.9 62 4.7 N 6 13 3 7 1020.8 - 0.0
22/10:00am 22.6 23.3 16.2 67 3.9 N 7 11 4 6 1021.1 - 0.0
22/09:30am 21.2 22.9 16.2 73 3.0 WNW 2 7 1 4 1021.4 - 0.0
22/09:00am 19.2 21.4 16.6 85 1.6 CALM 0 0 0 0 1021.7 1021.7 0.0
22/08:30am 17.6 19.7 16.3 92 0.8 CALM 0 0 0 0 1021.8 - 0.0
22/08:05am 15.6 17.4 15.4 99 0.1 CALM 0 6 0 3 1021.7 - 0.0
22/08:02am 15.4 16.7 15.2 99 0.1 SW 2 6 1 3 1021.8 - 0.0
22/08:00am 15.4 16.7 15.2 99 0.1 SW 2 6 1 3 1021.7 - 0.0
22/07:30am 14.1 15.3 13.9 99 0.1 CALM 0 0 0 0 1021.5 - 0.0
22/07:00am 13.2 14.1 13.0 99 0.1 CALM 0 0 0 0 1021.2 - 0.0
22/06:30am 12.4 13.1 12.1 98 0.2 CALM 0 0 0 0 1021.0 - 0.0
22/06:00am 12.3 12.9 12.0 98 0.2 CALM 0 0 0 0 1020.8 1020.8 0.0
22/05:30am 12.7 13.5 12.4 98 0.2 CALM 0 0 0 0 1020.4 - 0.0
22/05:00am 13.2 14.1 12.9 98 0.2 CALM 0 0 0 0 1020.3 - 0.0
22/04:30am 13.0 13.8 12.5 97 0.3 CALM 0 0 0 0 1020.2 - 0.0
22/04:00am 13.1 13.9 12.5 96 0.3 CALM 0 0 0 0 1020.0 - 0.0
22/03:41am 12.9 13.6 12.1 95 0.4 CALM 0 0 0 0 1019.9 - 0.0
22/03:30am 13.6 14.6 13.1 97 0.3 CALM 0 0 0 0 1019.7 - 0.0
22/03:00am 13.9 14.9 13.3 96 0.3 CALM 0 0 0 0 1019.6 1019.5 0.0
22/02:59am 13.9 15.0 13.4 97 0.3 CALM 0 0 0 0 1019.6 - 0.0
22/02:30am 14.0 15.1 13.4 96 0.3 CALM 0 0 0 0 1019.6 - 0.0
22/02:00am 14.4 14.9 13.9 97 0.3 S 4 6 2 3 1019.7 - 0.0
22/01:30am 14.7 16.0 14.1 96 0.3 CALM 0 0 0 0 1019.7 - 0.0
22/01:00am 15.0 16.4 14.4 96 0.3 CALM 0 0 0 0 1019.6 - 0.0
22/12:30am 15.4 17.0 14.8 96 0.3 CALM 0 0 0 0 1019.7 - 0.0
22/12:00am 15.7 17.3 14.9 95 0.5 CALM 0 0 0 0 1019.7 1019.6 0.0
 
Date/Time
EST
Temp
°C
App
Temp
°C
Dew
Point
Rel
Hum
%
Delta-T
°C
Wind Press
QNH
hPa
Press
MSL
hPa
Rain
since 9 am
mm
Dir
 
Spd
km/h
Gust
km/h
Spd
kts
Gust
kts
21/11:30pm 16.0 17.7 15.2 95 0.5 CALM 0 0 0 0 1019.8 - 0.0
21/11:00pm 16.5 18.3 15.4 93 0.6 CALM 0 0 0 0 1020.0 - 0.0
21/10:30pm 16.7 17.3 15.2 91 0.9 SSW 6 9 3 5 1020.0 - 0.0
21/10:00pm 17.3 17.8 15.5 89 1.1 SSW 7 9 4 5 1020.0 - 0.0
21/09:30pm 17.4 17.9 15.6 89 1.1 S 7 11 4 6 1019.9 - 0.0
21/09:00pm 18.4 19.0 15.8 85 1.5 SSW 7 11 4 6 1019.8 1019.8 0.0
21/08:30pm 18.7 19.2 16.5 87 1.3 SSW 9 13 5 7 1019.5 - 0.0
21/08:00pm 18.9 19.3 16.3 85 1.6 S 9 11 5 6 1019.3 - 0.0
21/07:30pm 19.6 19.8 16.8 84 1.7 S 11 13 6 7 1019.0 - 0.0
21/07:00pm 19.9 20.1 16.7 82 1.9 S 11 13 6 7 1018.7 - 0.0
21/06:30pm 20.9 21.2 17.1 79 2.3 S 11 15 6 8 1018.3 - 0.0
21/06:00pm 22.2 23.4 16.9 72 3.2 SSE 6 7 3 4 1018.0 1017.9 0.0
21/05:30pm 23.2 23.8 16.7 67 4.0 ESE 9 13 5 7 1017.6 - 0.0
21/05:00pm 25.0 24.4 14.5 52 6.3 ENE 11 19 6 10 1017.2 - 0.0
21/04:30pm 27.1 25.5 12.7 41 8.4 NE 13 20 7 11 1016.8 - 0.0
21/04:00pm 28.0 26.0 11.5 35 9.5 NNE 13 19 7 10 1016.6 - 0.0
21/03:30pm 28.1 25.5 10.8 34 9.8 NNE 15 20 8 11 1016.5 - 0.0
21/03:00pm 28.4 26.6 11.0 34 9.9 NNE 11 17 6 9 1016.5 1016.4 0.0
21/02:30pm 28.2 26.1 11.3 35 9.7 N 13 19 7 10 1016.7 - 0.0
21/02:00pm 27.7 26.8 12.5 39 8.9 N 9 17 5 9 1017.0 - 0.0
21/01:30pm 27.8 26.1 12.6 39 8.9 N 13 17 7 9 1017.4 - 0.0
21/01:00pm 27.4 26.3 10.6 35 9.5 N 7 15 4 8 1017.9 - 0.0
21/12:30pm 26.6 25.1 10.7 37 9.0 N 9 13 5 7 1018.3 - 0.0
21/12:00pm 26.3 25.8 12.7 43 7.9 W 7 11 4 6 1018.9 1018.8 0.0
21/11:30am 25.5 24.7 11.7 42 7.9 NW 7 11 4 6 1019.4 - 0.0
21/11:00am 24.6 23.6 12.2 46 7.1 NNW 9 15 5 8 1019.8 - 0.0

Other Formats:

Comma delimited format used in spreadsheet applications
http://www.bom.gov.au/fwo/IDN60801/IDN60801.95570.axf

JavaScript Object Notation format (JSON) in row-major order
http://www.bom.gov.au/fwo/IDN60801/IDN60801.95570.json